ADDS METAR Data INFO
IDs: Format: Raw Decoded Include TAF

Data at: 1746 UTC 15 Dec 2017

KCAR 151654Z AUTO 24012KT 10SM CLR M12/M19 A2982 RMK AO2 SLP116 T11221194
KCAR 151554Z AUTO 24013G18KT 10SM CLR M13/M21 A2982 RMK AO2 SLP117 T11331206
KCAR 151454Z AUTO 24012KT 10SM CLR M15/M21 A2982 RMK AO2 SLP117 T11501211 51028
KCAR 151354Z AUTO 24010KT 10SM CLR M16/M22 A2980 RMK AO2 SLP110 T11611217
KCAR 151254Z AUTO 23010KT 10SM CLR M17/M22 A2977 RMK AO2 SLP100 T11721222
KCAR 151154Z AUTO 24013KT 10SM CLR M17/M22 A2973 RMK AO2 SLP088 T11721217 11150 21172 53019
KCAR 151054Z AUTO 26010KT 10SM CLR M17/M22 A2971 RMK AO2 SLP079 T11671217
KCAR 150954Z AUTO 25011KT 10SM CLR M17/M22 A2969 RMK AO2 SLP073 T11671217
KCAR 150854Z AUTO 24010KT 10SM CLR M17/M21 A2968 RMK AO2 SLP069 T11671211 51031
KCAR 150754Z AUTO 25013G21KT 10SM CLR M16/M21 A2966 RMK AO2 PK WND 24028/0704 SLP062 T11611211
KCAR 150654Z AUTO 25018G28KT 10SM CLR M16/M21 A2962 RMK AO2 PK WND 26028/0654 SLP050 T11561206
KCAR 150554Z AUTO 25016KT 10SM CLR M16/M21 A2958 RMK AO2 SLP037 T11561206 11150 21156 53014
KCAR 150454Z AUTO 25016KT 10SM CLR M16/M20 A2957 RMK AO2 SLP031 T11561200 411221161
KCAR 150354Z AUTO 25015KT 10SM CLR M15/M20 A2956 RMK AO2 SLP027 T11501200
KCAR 150254Z AUTO 26012KT 10SM CLR M15/M20 A2954 RMK AO2 SLP022 T11501200 53012
KCAR 150154Z AUTO 26012KT 10SM CLR M15/M20 A2953 RMK AO2 SLP017 T11501200
KCAR 150054Z AUTO 25014KT 10SM CLR M16/M21 A2951 RMK AO2 SLP013 T11561206
KCAR 142354Z AUTO 25014G22KT 10SM CLR M16/M21 A2951 RMK AO2 SLP010 60000 T11561206 11139 21156 51021
KCAR 142254Z AUTO 25012KT 10SM CLR M16/M21 A2949 RMK AO2 SLP004 T11561206
KCAR 142154Z AUTO 25007KT 10SM FEW030 M16/M21 A2947 RMK AO2 SLP998 T11561206
KCAR 142054Z AUTO 25010KT 10SM FEW029 M15/M20 A2944 RMK AO2 SLP988 60000 T11501200 53016
KCAR 142010Z AUTO 26007G17KT 10SM SCT024 SCT030 M14/M20 A2942 RMK AO2 T11441200
KCAR 141954Z AUTO 24008KT 10SM BKN024 OVC030 M14/M19 A2941 RMK AO2 UPB40E53 SLP976 P0000 T11391189
KCAR 141926Z AUTO 25014KT 9SM BKN026 OVC036 M14/M20 A2940 RMK AO2 T11441200
KCAR 141902Z AUTO 25013KT 10SM FEW022 SCT029 OVC036 M14/M20 A2940 RMK AO2 T11441200
KCAR 141854Z AUTO 25012G18KT 4SM HZ SCT022 BKN028 OVC035 M14/M20 A2940 RMK AO2 UPB10E24SNB24E50 SLP972 P0000 T11441200
KCAR 141850Z AUTO 26013G18KT 3SM HZ SCT022 BKN028 OVC035 M14/M20 A2939 RMK AO2 UPB10E24SNB24E50 P0000
KCAR 141841Z AUTO 26006KT 2 1/2SM -SN BKN023 OVC028 M14/M18 A2939 RMK AO2 UPB10E24SNB24 P0000 T11441183
KCAR 141754Z AUTO 25015G20KT 9SM BKN026 OVC031 M14/M20 A2938 RMK AO2 SNE05 SLP967 P0000 60000 T11441200 11144 21161 58001
KCAR 141738Z AUTO 24012KT 9SM BKN024 OVC032 M14/M20 A2938 RMK AO2 SNE05 P0000 T11441200
KCAR 141718Z AUTO 24010KT 9SM SCT026 OVC032 M15/M20 A2938 RMK AO2 SNE05 P0000 T11501200
KCAR 141703Z AUTO 24013G20KT 5SM -SN SCT024 BKN029 OVC034 M15/M21 A2939 RMK AO2 P0000 T11501206
KCAR 141654Z AUTO 25010G18KT 2SM -SN BKN024 OVC031 M15/M20 A2939 RMK AO2 VIS 1 1/2V3 UPB30E35SNB35 SLP969 P0000 T11501200
KCAR 141652Z AUTO 25010G18KT 2SM -SN BKN024 OVC031 M15/M20 A2939 RMK AO2 VIS 1 1/2V3 UPB30E35SNB35 P0000
KCAR 141644Z AUTO 25012G20KT 1 3/4SM -SN SCT022 OVC031 M15/M20 A2939 RMK AO2 UPB30E35SNB35 P0000 T11501200
KCAR 141610Z AUTO 25012G19KT 5SM BLSN OVC031 M15/M20 A2939 RMK AO2 T11501200
KCAR 141554Z AUTO 25013G21KT 7SM OVC029 M15/M21 A2939 RMK AO2 SLP970 T11501206
KCAR 141454Z AUTO 24013G23KT 10SM BKN028 M16/M21 A2939 RMK AO2 SLP968 T11561206 53028
KCAR 141354Z AUTO 25016G22KT 10SM SCT029 M16/M21 A2936 RMK AO2 SLP958 T11561211
KCAR 141346Z AUTO 25012G19KT 10SM SCT029 M16/M21 A2935 RMK AO2 T11561211
KCAR 141332Z AUTO 24012KT 10SM BKN029 M16/M21 A2935 RMK AO2 T11611211
KCAR 141254Z AUTO 24013KT 10SM FEW027 M16/M21 A2933 RMK AO2 SLP947 T11611211
KCAR 141154Z AUTO 24008KT 10SM BKN030 M16/M21 A2930 RMK AO2 SLP938 70013 T11561211 11128 21156 53038
KCAR 141054Z AUTO 25016G22KT 10SM SCT026 M16/M21 A2926 RMK AO2 PK WND 25026/0955 SLP922 T11561206
KCAR 141007Z AUTO 25013G21KT 10SM BKN023 M16/M21 A2923 RMK AO2 PK WND 25026/0955 T11561206
KCAR 140954Z AUTO 24015G24KT 7SM SCT021 M16/M21 A2922 RMK AO2 PK WND 26030/0859 SLP911 T11561206
KCAR 140919Z AUTO 25016G28KT 4SM BLSN FEW002 M15/M21 A2920 RMK AO2 PK WND 26030/0859 T11501206
KCAR 140854Z AUTO 23018G26KT 10SM CLR M14/M19 A2919 RMK AO2 PK WND 25027/0836 SLP897 T11441194 51031
KCAR 140814Z AUTO 24014KT 10SM SCT031 M14/M19 A2916 RMK AO2 T11391189
KCAR 140754Z AUTO 24011G17KT 10SM BKN028 M13/M18 A2915 RMK AO2 SLP886 T11331183
KCAR 140654Z AUTO 25014G19KT 10SM BKN027 OVC080 M13/M18 A2913 RMK AO2 SLP878 T11331178
KCAR 140554Z AUTO 25014G19KT 10SM BKN025 OVC070 M13/M17 A2909 RMK AO2 UPB14E43 SLP864 P0000 60000 T11281172 11094 21128 51025
KCAR 140550Z AUTO 25013G20KT 10SM BKN025 OVC070 M13/M17 A2909 RMK AO2 UPB14E43 P0000